Hachinohemaru — JE3089 — position and weather

sailwx.info

Track history (hours):
 
Tides and Currents Weather Stations Pressure Air Temp Water Temp Dewpoint Dewpoint Depression Visibility Wind Speed Wind Dir Waves Ship Positions

Hachinohemaru

Last reported at 2016-Aug-25 08:29 UTC. Time now 2016-Aug-27 01:12 UTC.
Position N 36°39' E 140°59'.

Length 168 m; draft 6.5 m.

Type: Cargo ship. MMSI: 431700018.

Date/timePositionNaut miles runAvg speedWind from/ knotsBaromVisibWave heightAir tempDewpointWater temp
2016-Aug-25 08:29N 36°39' E 140°59'3013.9
2016-Aug-25 06:18N 36°10' E 140°48'16 1.4
2016-Aug-24 19:16N 35°56' E 140°41'0 0.2
2016-Aug-24 18:23N 35°55' E 140°41'  
2016-Aug-20 19:26N 36°41' E 141°01'1413.4
2016-Aug-20 18:22N 36°27' E 140°56'1113.4
2016-Aug-20 17:32N 36°17' E 140°51'1313.2
2016-Aug-20 16:33N 36°05' E 140°45'10 0.8
2016-Aug-20 04:03N 35°55' E 140°41'4 7.5
2016-Aug-20 03:33N 35°59' E 140°44'1512.6
2016-Aug-20 02:23N 35°48' E 140°57'1112.1
2016-Aug-20 01:28N 35°37' E 140°56'1412.7
2016-Aug-20 00:21N 35°25' E 140°47'1113.5
2016-Aug-19 23:32N 35°16' E 140°40'1313.4
2016-Aug-19 22:33N 35°06' E 140°29'1312.8
2016-Aug-19 21:30N 34°58' E 140°16'1212.2
2016-Aug-19 20:30N 34°51' E 140°03'1211.4
2016-Aug-19 19:25N 34°46' E 139°50'1011.2
2016-Aug-19 18:32N 34°42' E 139°39'  
Track history (hours):
 
Tides and Currents Weather Stations Pressure Air Temp Water Temp Dewpoint Dewpoint Depression Visibility Wind Speed Wind Dir Waves Ship Positions

Hachinohemaru

Last reported at 2016-Aug-25 08:29 UTC. Time now 2016-Aug-27 01:12 UTC.
Position N 36°39' E 140°59'.

Length 168 m; draft 6.5 m.

Type: Cargo ship. MMSI: 431700018.

Date/timePositionNaut miles runAvg speedWind from/ knotsBaromVisibWave heightAir tempDewpointWater temp
2016-Aug-25 08:29N 36°39' E 140°59'3013.9
2016-Aug-25 06:18N 36°10' E 140°48'16 1.4
2016-Aug-24 19:16N 35°56' E 140°41'0 0.2
2016-Aug-24 18:23N 35°55' E 140°41'  
2016-Aug-20 19:26N 36°41' E 141°01'1413.4
2016-Aug-20 18:22N 36°27' E 140°56'1113.4
2016-Aug-20 17:32N 36°17' E 140°51'1313.2
2016-Aug-20 16:33N 36°05' E 140°45'10 0.8
2016-Aug-20 04:03N 35°55' E 140°41'4 7.5
2016-Aug-20 03:33N 35°59' E 140°44'1512.6
2016-Aug-20 02:23N 35°48' E 140°57'1112.1
2016-Aug-20 01:28N 35°37' E 140°56'1412.7
2016-Aug-20 00:21N 35°25' E 140°47'1113.5
2016-Aug-19 23:32N 35°16' E 140°40'1313.4
2016-Aug-19 22:33N 35°06' E 140°29'1312.8
2016-Aug-19 21:30N 34°58' E 140°16'1212.2
2016-Aug-19 20:30N 34°51' E 140°03'1211.4
2016-Aug-19 19:25N 34°46' E 139°50'1011.2
2016-Aug-19 18:32N 34°42' E 139°39'  

Dump ship's entire track history